MAPA DE AEROPUERTO

INFORMACIÓN METAR y TAF


Deprecated: The each() function is deprecated. This message will be suppressed on further calls in /home/customer/www/clickair-va.com/public_html/VAM/vam/helpers/get_metar.php on line 20
METAR FOR GCLP
ADDS - METARS form results

(1621 UTC 13 January 2023)
Data provider http://aviationweather.gov/metar/data/
 
METAR text: GCLP 131600Z 02020KT 9999 SCT030 21/13 Q1024 NOSIG
Conditions at: GCLP (LAS PALMAS/GANDO, ES) observed 1600 UTC 13 January 2023
Temperature: 21.0°C (70°F)
Dewpoint: 13.0°C (55°F) [RH = 60%]
Pressure (altimeter): 30.24 inches Hg (1024.0 mb)
Winds: from the NNE (20 degrees) at 23 MPH (20 knots; 10.3 m/s)
Visibility: 6 or more miles (10+ km)
Ceiling: at least 12,000 feet AGL
Clouds: scattered clouds at 3000 feet AGL
Weather: no significant weather observed at this time

METAR text: GCLP 131530Z 02020KT 9999 FEW030 22/13 Q1024 NOSIG
Conditions at: GCLP (LAS PALMAS/GANDO, ES) observed 1530 UTC 13 January 2023
Temperature: 22.0°C (72°F)
Dewpoint: 13.0°C (55°F) [RH = 57%]
Pressure (altimeter): 30.24 inches Hg (1024.0 mb)
Winds: from the NNE (20 degrees) at 23 MPH (20 knots; 10.3 m/s)
Visibility: 6 or more miles (10+ km)
Ceiling: at least 12,000 feet AGL
Clouds: few clouds at 3000 feet AGL
Weather: no significant weather observed at this time

Forecast for: GCLP (LAS PALMAS/GANDO, ES)
Text: TAF GCLP 131400Z 1315/1415 03015KT 9999 SCT030 TX23/1414Z TN18/1406Z
Forecast period: 1500 to 2100 UTC 13 January 2023
Forecast type: FROM: standard forecast or significant change
Winds: from the NNE (30 degrees) at 17 MPH (15 knots; 7.7 m/s)
Visibility: 6 or more miles (10+ km)
Ceiling: at least 12,000 feet AGL
Clouds: scattered clouds at 3000 feet AGL
Weather: no significant weather forecast for this period
Text: BECMG 1321/1323 33008KT
Forecast period: 2100 UTC 13 January 2023 to 1000 UTC 14 January 2023
Forecast type: BECOMING: Conditions expected to become as follows by 2300 UTC 13 January 2023
Winds: from the NNW (330 degrees) at 9 MPH (8 knots; 4.1 m/s)
Visibility: 6 or more miles (10+ km)
Ceiling: at least 12,000 feet AGL
Clouds: scattered clouds at 3000 feet AGL
Weather: no significant weather forecast for this period
Text: BECMG 1410/1412 03012KT
Forecast period: 1000 to 1500 UTC 14 January 2023
Forecast type: BECOMING: Conditions expected to become as follows by 1200 UTC 14 January 2023
Winds: from the NNE (30 degrees) at 14 MPH (12 knots; 6.2 m/s)
Visibility: 6 or more miles (10+ km)
Ceiling: at least 12,000 feet AGL
Clouds: scattered clouds at 3000 feet AGL
Weather: no significant weather forecast for this period